createdAt,value
2022-11-23T00:01:18.680Z,100.00
2022-11-23T00:03:46.748Z,100.00
2022-11-23T00:06:13.479Z,100.00
2022-11-23T00:08:39.903Z,100.00
2022-11-23T00:11:06.660Z,100.00
2022-11-23T00:13:35.120Z,100.00
2022-11-23T00:16:08.408Z,100.00
2022-11-23T00:18:35.141Z,100.00
2022-11-23T00:21:06.652Z,100.00
2022-11-23T00:23:33.112Z,100.00
2022-11-23T00:25:59.527Z,100.00
2022-11-23T00:28:26.010Z,100.00
2022-11-23T00:30:52.417Z,100.00
2022-11-23T00:33:18.845Z,100.00
2022-11-23T00:35:45.395Z,100.00
2022-11-23T00:38:12.093Z,100.00
2022-11-23T00:40:38.562Z,100.00
2022-11-23T00:43:05.061Z,100.00
2022-11-23T00:45:31.574Z,100.00
2022-11-23T00:47:58.023Z,100.00
2022-11-23T00:50:24.439Z,100.00
2022-11-23T00:52:50.843Z,100.00
2022-11-23T00:55:17.374Z,100.00
2022-11-23T00:57:43.783Z,100.00
2022-11-23T01:00:12.483Z,100.00
2022-11-23T01:02:38.933Z,100.00
2022-11-23T01:05:05.582Z,100.00
2022-11-23T01:07:32.143Z,100.00
2022-11-23T01:09:58.703Z,100.00
2022-11-23T01:12:25.231Z,100.00
2022-11-23T01:14:53.860Z,100.00
2022-11-23T01:17:20.331Z,100.00
2022-11-23T01:19:46.857Z,100.00
2022-11-23T01:22:13.300Z,100.00
2022-11-23T01:24:39.707Z,100.00
2022-11-23T01:27:06.242Z,100.00
2022-11-23T01:29:33.002Z,100.00
2022-11-23T01:31:59.698Z,100.00
2022-11-23T01:34:26.115Z,100.00
2022-11-23T01:36:52.535Z,100.00
2022-11-23T01:39:18.981Z,100.00
2022-11-23T01:41:45.800Z,100.00
2022-11-23T01:44:31.826Z,100.00
2022-11-23T01:47:00.919Z,100.00
2022-11-23T01:49:30.541Z,100.00
2022-11-23T01:51:59.966Z,100.00
2022-11-23T01:54:29.677Z,100.00
2022-11-23T01:57:00.372Z,100.00
2022-11-23T01:59:27.174Z,100.00
2022-11-23T02:01:53.667Z,100.00
2022-11-23T02:04:25.131Z,100.00
2022-11-23T02:06:52.558Z,100.00
2022-11-23T02:09:19.826Z,100.00
2022-11-23T02:11:46.241Z,100.00
2022-11-23T02:14:12.793Z,100.00
2022-11-23T02:16:39.355Z,100.00
2022-11-23T02:19:10.534Z,100.00
2022-11-23T02:21:36.936Z,100.00
2022-11-23T02:24:14.892Z,100.00
2022-11-23T02:26:41.648Z,100.00
2022-11-23T02:29:12.244Z,100.00
2022-11-23T02:31:38.648Z,100.00
2022-11-23T02:34:05.061Z,100.00
2022-11-23T02:36:36.534Z,100.00
2022-11-23T02:39:08.126Z,100.00
2022-11-23T02:41:36.598Z,100.00
2022-11-23T02:44:03.939Z,100.00
2022-11-23T02:46:30.499Z,100.00
2022-11-23T02:48:56.907Z,100.00
2022-11-23T02:51:23.315Z,100.00
2022-11-23T02:53:49.711Z,99.92
2022-11-23T02:56:16.112Z,99.99
2022-11-23T02:58:42.505Z,99.32
2022-11-23T03:01:08.964Z,98.75
2022-11-23T03:03:35.446Z,97.91
2022-11-23T03:06:01.875Z,97.67
2022-11-23T03:08:28.317Z,97.03
2022-11-23T03:10:54.730Z,96.91
2022-11-23T03:13:21.142Z,97.81
2022-11-23T03:15:48.048Z,98.44
2022-11-23T03:18:14.447Z,99.42
2022-11-23T03:20:40.856Z,100.00
2022-11-23T03:23:07.281Z,100.00
2022-11-23T03:25:33.697Z,100.00
2022-11-23T03:28:00.118Z,100.00
2022-11-23T03:30:26.533Z,100.00
2022-11-23T03:32:52.956Z,100.00
2022-11-23T03:35:19.370Z,100.00
2022-11-23T03:37:45.782Z,100.00
2022-11-23T03:40:12.566Z,100.00
2022-11-23T03:42:40.502Z,100.00
2022-11-23T03:45:08.068Z,100.00
2022-11-23T03:47:34.932Z,100.00
2022-11-23T03:50:01.353Z,100.00
2022-11-23T03:52:27.770Z,100.00
2022-11-23T03:54:54.170Z,100.00
2022-11-23T03:57:20.591Z,100.00
2022-11-23T03:59:46.991Z,100.00
2022-11-23T04:02:13.406Z,100.00
2022-11-23T04:04:39.927Z,100.00
2022-11-23T04:07:06.443Z,100.00
2022-11-23T04:09:33.230Z,100.00
2022-11-23T04:11:59.804Z,100.00
2022-11-23T04:14:26.253Z,100.00
2022-11-23T04:16:52.657Z,100.00
2022-11-23T04:19:19.052Z,100.00
2022-11-23T04:21:45.453Z,100.00
2022-11-23T04:24:12.040Z,100.00
2022-11-23T04:26:40.379Z,100.00
2022-11-23T04:29:06.771Z,100.00
2022-11-23T04:31:33.194Z,100.00
2022-11-23T04:33:59.700Z,100.00
2022-11-23T04:36:27.250Z,100.00
2022-11-23T04:38:53.801Z,100.00
2022-11-23T04:41:20.333Z,100.00
2022-11-23T04:43:51.807Z,100.00
2022-11-23T04:46:18.641Z,100.00
2022-11-23T04:48:45.106Z,100.00
2022-11-23T04:51:11.516Z,100.00
2022-11-23T04:53:37.916Z,100.00
2022-11-23T04:56:04.404Z,100.00
2022-11-23T04:58:34.590Z,100.00
2022-11-23T05:01:01.287Z,100.00
2022-11-23T05:03:27.802Z,100.00
2022-11-23T05:05:54.316Z,100.00
2022-11-23T05:08:20.726Z,100.00
2022-11-23T05:10:47.292Z,100.00
2022-11-23T05:13:13.713Z,100.00
2022-11-23T05:15:40.117Z,100.00
2022-11-23T05:18:07.419Z,100.00
2022-11-23T05:20:34.485Z,100.00
2022-11-23T05:23:02.254Z,100.00
2022-11-23T05:25:28.689Z,100.00
2022-11-23T05:27:55.147Z,100.00
2022-11-23T05:30:21.733Z,100.00
2022-11-23T05:32:48.175Z,100.00
2022-11-23T05:35:15.000Z,100.00
2022-11-23T05:37:41.827Z,100.00
2022-11-23T05:40:09.214Z,100.00
2022-11-23T05:42:35.713Z,99.85
2022-11-23T05:45:02.148Z,99.83
2022-11-23T05:47:28.581Z,100.00
2022-11-23T05:49:55.119Z,99.41
2022-11-23T05:52:21.511Z,99.99
2022-11-23T05:54:47.908Z,100.00
2022-11-23T05:57:15.781Z,99.95
2022-11-23T05:59:42.263Z,100.00
2022-11-23T06:02:08.729Z,100.00
2022-11-23T06:04:35.151Z,100.00
2022-11-23T06:07:01.630Z,100.00
2022-11-23T06:09:28.473Z,100.00
2022-11-23T06:11:55.161Z,100.00
2022-11-23T06:14:21.620Z,100.00
2022-11-23T06:16:48.068Z,100.00
2022-11-23T06:19:14.550Z,100.00
2022-11-23T06:21:41.724Z,100.00
2022-11-23T06:24:11.006Z,100.00
2022-11-23T06:26:37.449Z,100.00
2022-11-23T06:29:03.863Z,100.00
2022-11-23T06:31:30.320Z,100.00
2022-11-23T06:33:56.804Z,100.00
2022-11-23T06:36:23.223Z,100.00
2022-11-23T06:38:49.719Z,100.00
2022-11-23T06:41:16.130Z,100.00
2022-11-23T06:43:42.555Z,100.00
2022-11-23T06:46:09.106Z,100.00
2022-11-23T06:48:35.554Z,100.00
2022-11-23T06:51:02.003Z,100.00
2022-11-23T06:53:29.064Z,100.00
2022-11-23T06:55:59.998Z,100.00
2022-11-23T06:58:26.733Z,100.00
2022-11-23T07:00:53.185Z,100.00
2022-11-23T07:03:22.078Z,100.00
2022-11-23T07:05:48.700Z,100.00
2022-11-23T07:08:15.128Z,100.00
2022-11-23T07:10:41.870Z,100.00
2022-11-23T07:13:09.673Z,100.00
2022-11-23T07:15:37.019Z,100.00
2022-11-23T07:18:03.973Z,100.00
2022-11-23T07:20:30.573Z,100.00
2022-11-23T07:23:05.907Z,100.00
2022-11-23T07:25:34.042Z,100.00
2022-11-23T07:28:01.697Z,100.00
2022-11-23T07:30:29.822Z,100.00
2022-11-23T07:33:14.353Z,100.00
2022-11-23T07:35:41.394Z,100.00
2022-11-23T07:38:09.056Z,100.00
2022-11-23T07:40:39.446Z,100.00
2022-11-23T07:43:06.822Z,100.00
2022-11-23T07:45:33.917Z,100.00
2022-11-23T07:48:02.349Z,100.00
2022-11-23T07:50:29.001Z,100.00
2022-11-23T07:52:55.713Z,100.00
2022-11-23T07:55:23.013Z,100.00
2022-11-23T07:57:54.254Z,100.00
2022-11-23T08:00:24.998Z,100.00
2022-11-23T08:03:19.359Z,100.00
2022-11-23T08:05:37.816Z,100.00
2022-11-23T08:08:04.454Z,100.00
2022-11-23T08:10:31.719Z,100.00
2022-11-23T08:13:04.315Z,100.00
2022-11-23T08:15:31.020Z,100.00
2022-11-23T08:17:58.633Z,100.00
2022-11-23T08:20:25.934Z,100.00
2022-11-23T08:22:52.772Z,100.00
2022-11-23T08:25:19.160Z,100.00
2022-11-23T08:27:45.667Z,100.00
2022-11-23T08:30:12.431Z,100.00
2022-11-23T08:32:38.854Z,100.00
2022-11-23T08:35:06.099Z,100.00
2022-11-23T08:37:32.517Z,100.00
2022-11-23T08:39:58.920Z,100.00
2022-11-23T08:42:25.325Z,100.00
2022-11-23T08:44:51.728Z,100.00
2022-11-23T08:47:19.605Z,100.00
2022-11-23T08:49:46.005Z,100.00
2022-11-23T08:52:12.408Z,100.00
2022-11-23T08:54:38.835Z,100.00
2022-11-23T08:57:05.257Z,100.00
2022-11-23T08:59:31.680Z,100.00
2022-11-23T09:01:58.288Z,100.00
2022-11-23T09:04:27.507Z,100.00
2022-11-23T09:06:53.932Z,100.00
2022-11-23T09:09:20.410Z,100.00
2022-11-23T09:11:46.838Z,100.00
2022-11-23T09:14:13.238Z,100.00
2022-11-23T09:16:39.703Z,100.00
2022-11-23T09:19:08.090Z,100.00
2022-11-23T09:21:35.751Z,100.00
2022-11-23T09:24:02.289Z,100.00
2022-11-23T09:26:28.744Z,100.00
2022-11-23T09:28:55.128Z,100.00
2022-11-23T09:31:21.573Z,100.00
2022-11-23T09:33:48.020Z,100.00
2022-11-23T09:36:14.424Z,100.00
2022-11-23T09:38:57.522Z,100.00
2022-11-23T09:41:55.837Z,100.00
2022-11-23T09:44:44.006Z,100.00
2022-11-23T09:47:36.717Z,100.00
2022-11-23T09:50:06.124Z,100.00
2022-11-23T09:52:33.444Z,100.00
2022-11-23T09:55:22.271Z,100.00
2022-11-23T09:57:49.091Z,100.00
2022-11-23T10:00:23.099Z,100.00
2022-11-23T10:02:49.639Z,100.00
2022-11-23T10:05:20.150Z,100.00
2022-11-23T10:08:13.535Z,100.00
2022-11-23T10:11:21.281Z,100.00
2022-11-23T10:14:05.373Z,100.00
2022-11-23T10:16:53.291Z,100.00
2022-11-23T10:19:44.419Z,100.00
2022-11-23T10:22:19.163Z,100.00
2022-11-23T10:24:51.995Z,99.84
2022-11-23T10:27:20.947Z,99.71
2022-11-23T10:29:48.315Z,99.34
2022-11-23T10:32:38.098Z,98.96
2022-11-23T10:35:21.536Z,98.63
2022-11-23T10:37:47.967Z,98.78
2022-11-23T10:40:22.041Z,97.92
2022-11-23T10:43:02.889Z,97.83
2022-11-23T10:45:29.516Z,97.24
2022-11-23T10:47:59.967Z,97.17
2022-11-23T10:50:30.111Z,96.89
2022-11-23T10:53:02.344Z,97.00
2022-11-23T10:55:31.476Z,96.87
2022-11-23T10:57:58.530Z,96.68
2022-11-23T11:00:30.580Z,96.59
2022-11-23T11:02:58.516Z,95.96
2022-11-23T11:08:48.642Z,96.34
2022-11-23T11:11:45.855Z,96.56
2022-11-23T11:14:17.011Z,96.26
2022-11-23T11:16:48.046Z,96.07
2022-11-23T11:19:25.044Z,96.02
2022-11-23T11:21:51.582Z,95.31
2022-11-23T11:24:20.916Z,94.83
2022-11-23T11:26:49.607Z,95.13
2022-11-23T11:29:38.657Z,94.27
2022-11-23T11:32:10.703Z,93.81
2022-11-23T11:34:53.275Z,93.64
2022-11-23T11:37:42.515Z,93.46
2022-11-23T11:40:27.688Z,93.23
2022-11-23T11:42:57.939Z,93.60
2022-11-23T11:45:26.897Z,92.96
2022-11-23T11:47:57.843Z,93.20
2022-11-23T11:50:34.326Z,92.70
2022-11-23T11:53:08.299Z,92.84
2022-11-23T11:55:51.360Z,92.52
2022-11-23T11:58:18.295Z,92.50
2022-11-23T12:00:47.028Z,92.10
2022-11-23T12:03:34.539Z,91.71
2022-11-23T12:06:07.062Z,91.07
2022-11-23T12:08:40.845Z,90.74
2022-11-23T12:11:10.663Z,89.77
2022-11-23T12:13:39.075Z,89.22
2022-11-23T12:16:27.323Z,89.22
2022-11-23T12:19:19.402Z,88.46
2022-11-23T12:21:47.137Z,88.51
2022-11-23T12:24:34.057Z,88.26
2022-11-23T12:27:17.060Z,88.11
2022-11-23T12:30:14.089Z,87.98
2022-11-23T12:33:01.665Z,88.58
2022-11-23T12:35:48.089Z,88.74
2022-11-23T12:38:47.759Z,88.26
2022-11-23T12:41:42.193Z,88.01
2022-11-23T12:44:50.234Z,87.63
2022-11-23T12:47:41.777Z,87.13
2022-11-23T12:50:30.489Z,86.88
2022-11-23T12:53:17.079Z,86.62
2022-11-23T12:56:04.987Z,86.55
2022-11-23T12:58:33.322Z,86.40
2022-11-23T13:01:07.171Z,86.85
2022-11-23T13:03:50.590Z,86.91
2022-11-23T13:06:35.797Z,87.12
2022-11-23T13:09:17.356Z,86.87
2022-11-23T13:12:25.208Z,87.01
2022-11-23T13:14:56.209Z,87.17
2022-11-23T13:17:44.434Z,86.94
2022-11-23T13:20:23.045Z,87.03
2022-11-23T13:22:49.806Z,86.79
2022-11-23T13:25:25.460Z,86.53
2022-11-23T13:27:51.775Z,86.40
2022-11-23T13:30:24.448Z,85.97
2022-11-23T13:32:56.812Z,85.80
2022-11-23T13:35:23.183Z,85.54
2022-11-23T13:37:55.667Z,85.50
2022-11-23T13:40:23.512Z,85.07
2022-11-23T13:42:51.618Z,85.01
2022-11-23T13:45:24.701Z,84.94
2022-11-23T13:48:09.472Z,84.94
2022-11-23T13:50:41.069Z,84.61
2022-11-23T13:53:33.854Z,84.73
2022-11-23T13:56:24.305Z,84.34
2022-11-23T13:58:53.450Z,84.13
2022-11-23T14:02:08.267Z,83.64
2022-11-23T14:04:35.628Z,83.26
2022-11-23T14:07:07.034Z,83.42
2022-11-23T14:09:36.960Z,83.65
2022-11-23T14:12:12.415Z,83.57
2022-11-23T14:15:03.911Z,83.27
2022-11-23T14:17:55.807Z,83.54
2022-11-23T14:20:28.495Z,83.11
2022-11-23T14:23:36.099Z,82.73
2022-11-23T14:26:21.257Z,81.77
2022-11-23T14:29:05.847Z,82.04
2022-11-23T14:31:59.466Z,81.96
2022-11-23T14:34:35.201Z,82.40
2022-11-23T14:37:13.552Z,82.59
2022-11-23T14:39:55.638Z,82.36
2022-11-23T14:42:25.196Z,82.61
2022-11-23T14:44:52.388Z,82.43
2022-11-23T14:47:27.042Z,82.31
2022-11-23T14:49:53.549Z,82.58
2022-11-23T14:52:22.834Z,82.75
2022-11-23T14:54:50.961Z,82.97
2022-11-23T14:57:19.596Z,83.80
2022-11-23T15:00:10.156Z,84.11
2022-11-23T15:02:40.755Z,84.61
2022-11-23T15:05:08.179Z,84.68
2022-11-23T15:07:43.913Z,84.99
2022-11-23T15:10:19.403Z,85.28
2022-11-23T15:12:47.881Z,85.74
2022-11-23T15:15:26.178Z,85.97
2022-11-23T15:18:00.316Z,85.97
2022-11-23T15:20:33.365Z,86.00
2022-11-23T15:23:03.175Z,86.39
2022-11-23T15:25:30.013Z,86.32
2022-11-23T15:27:56.635Z,86.54
2022-11-23T15:30:32.165Z,86.83
2022-11-23T15:33:06.139Z,86.79
2022-11-23T15:35:37.968Z,86.34
2022-11-23T15:38:07.794Z,86.44
2022-11-23T15:40:38.155Z,85.75
2022-11-23T15:43:04.706Z,85.92
2022-11-23T15:45:38.474Z,86.17
2022-11-23T15:48:29.041Z,85.84
2022-11-23T15:50:57.879Z,86.46
2022-11-23T15:53:32.607Z,86.36
2022-11-23T15:56:04.929Z,86.53
2022-11-23T15:58:32.319Z,86.65
2022-11-23T16:01:11.371Z,86.56
2022-11-23T16:04:02.113Z,86.73
2022-11-23T16:06:35.301Z,87.06
2022-11-23T16:09:01.952Z,87.13
2022-11-23T16:11:30.083Z,88.09
2022-11-23T16:14:14.502Z,89.31
2022-11-23T16:16:45.720Z,89.69
2022-11-23T16:19:25.211Z,89.95
2022-11-23T16:22:00.576Z,90.34
2022-11-23T16:24:29.248Z,91.19
2022-11-23T16:26:55.667Z,91.47
2022-11-23T16:29:35.576Z,92.04
2022-11-23T16:32:03.060Z,92.17
2022-11-23T16:34:29.713Z,92.65
2022-11-23T16:36:56.372Z,92.84
2022-11-23T16:39:24.079Z,93.62
2022-11-23T16:41:51.359Z,93.20
2022-11-23T16:44:18.438Z,93.50
2022-11-23T16:46:46.811Z,94.05
2022-11-23T16:49:22.061Z,94.54
2022-11-23T16:51:56.966Z,94.66
2022-11-23T16:54:34.013Z,94.96
2022-11-23T16:57:00.609Z,94.49
2022-11-23T16:59:27.134Z,94.19
2022-11-23T17:01:57.241Z,94.09
2022-11-23T17:04:24.739Z,94.16
2022-11-23T17:06:51.231Z,94.44
2022-11-23T17:09:17.634Z,94.32
2022-11-23T17:11:46.547Z,94.58
2022-11-23T17:14:18.506Z,94.33
2022-11-23T17:16:45.584Z,94.45
2022-11-23T17:19:16.909Z,94.59
2022-11-23T17:21:43.658Z,94.63
2022-11-23T17:24:11.026Z,94.84
2022-11-23T17:26:39.233Z,94.77
2022-11-23T17:29:07.640Z,95.20
2022-11-23T17:31:34.369Z,95.51
2022-11-23T17:34:00.855Z,95.33
2022-11-23T17:36:27.564Z,95.82
2022-11-23T17:38:54.012Z,95.73
2022-11-23T17:41:20.411Z,95.76
2022-11-23T17:43:46.835Z,97.07
2022-11-23T17:46:19.165Z,97.39
2022-11-23T17:48:46.788Z,97.22
2022-11-23T17:51:13.695Z,97.14
2022-11-23T17:53:40.547Z,97.29
2022-11-23T17:56:15.406Z,97.36
2022-11-23T17:58:41.874Z,96.92
2022-11-23T18:01:13.198Z,97.33
2022-11-23T18:03:39.739Z,97.06
2022-11-23T18:06:06.582Z,97.07
2022-11-23T18:08:33.019Z,97.05
2022-11-23T18:10:59.776Z,96.51
2022-11-23T18:13:26.214Z,96.83
2022-11-23T18:15:52.867Z,96.57
2022-11-23T18:18:19.322Z,96.28
2022-11-23T18:20:45.754Z,95.72
2022-11-23T18:23:12.164Z,95.87
2022-11-23T18:25:38.547Z,96.40
2022-11-23T18:28:05.034Z,96.25
2022-11-23T18:30:31.629Z,95.98
2022-11-23T18:32:58.379Z,95.78
2022-11-23T18:35:24.798Z,96.26
2022-11-23T18:37:51.195Z,96.18
2022-11-23T18:40:17.624Z,95.77
2022-11-23T18:42:44.126Z,95.97
2022-11-23T18:45:10.553Z,95.38
2022-11-23T18:47:37.575Z,95.68
2022-11-23T18:50:06.698Z,95.37
2022-11-23T18:52:33.414Z,96.11
2022-11-23T18:54:59.845Z,96.80
2022-11-23T18:57:26.256Z,97.71
2022-11-23T19:00:00.212Z,97.93
2022-11-23T19:02:27.011Z,98.06
2022-11-23T19:04:53.417Z,98.14
2022-11-23T19:07:25.274Z,97.98
2022-11-23T19:09:53.457Z,98.34
2022-11-23T19:12:19.896Z,98.08
2022-11-23T19:14:49.607Z,98.02
2022-11-23T19:17:16.974Z,98.17
2022-11-23T19:19:43.383Z,98.67
2022-11-23T19:22:09.840Z,98.66
2022-11-23T19:24:36.292Z,98.77
2022-11-23T19:27:02.720Z,98.71
2022-11-23T19:29:29.214Z,98.44
2022-11-23T19:31:56.117Z,98.26
2022-11-23T19:34:22.635Z,98.18
2022-11-23T19:36:49.092Z,97.63
2022-11-23T19:39:15.555Z,96.89
2022-11-23T19:41:41.982Z,96.22
2022-11-23T19:44:09.263Z,95.47
2022-11-23T19:46:35.695Z,95.90
2022-11-23T19:49:02.202Z,95.01
2022-11-23T19:51:28.808Z,94.95
2022-11-23T19:53:57.586Z,94.64
2022-11-23T19:56:25.673Z,94.22
2022-11-23T19:58:53.716Z,93.63
2022-11-23T20:01:21.937Z,93.54
2022-11-23T20:03:53.636Z,94.29
2022-11-23T20:06:28.639Z,94.61
2022-11-23T20:08:57.020Z,93.86
2022-11-23T20:11:24.582Z,93.91
2022-11-23T20:13:51.002Z,93.79
2022-11-23T20:16:18.970Z,94.08
2022-11-23T20:18:46.700Z,93.89
2022-11-23T20:21:14.962Z,94.11
2022-11-23T20:23:42.313Z,94.75
2022-11-23T20:26:10.878Z,94.22
2022-11-23T20:28:37.407Z,93.61
2022-11-23T20:31:07.774Z,93.73
2022-11-23T20:33:34.226Z,94.62
2022-11-23T20:36:10.699Z,95.14
2022-11-23T20:38:38.677Z,95.63
2022-11-23T20:41:19.424Z,95.19
2022-11-23T20:43:47.696Z,95.34
2022-11-23T20:46:19.231Z,95.12
2022-11-23T20:48:58.676Z,95.07
2022-11-23T20:51:26.630Z,94.77
2022-11-23T20:53:53.481Z,95.06
2022-11-23T20:56:25.748Z,95.19
2022-11-23T20:58:55.347Z,95.04
2022-11-23T21:01:21.874Z,95.09
2022-11-23T21:03:54.040Z,95.18
2022-11-23T21:06:21.078Z,94.04
2022-11-23T21:08:48.914Z,93.24
2022-11-23T21:11:38.333Z,92.47
2022-11-23T21:14:06.821Z,92.27
2022-11-23T21:16:39.263Z,91.75
2022-11-23T21:19:09.796Z,90.96
2022-11-23T21:21:37.203Z,90.83
2022-11-23T21:24:04.885Z,90.67
2022-11-23T21:26:31.633Z,90.25
2022-11-23T21:28:58.281Z,91.72
2022-11-23T21:31:25.290Z,91.84
2022-11-23T21:33:53.909Z,92.23
2022-11-23T21:36:24.646Z,92.28
2022-11-23T21:38:51.237Z,93.12
2022-11-23T21:41:18.125Z,92.88
2022-11-23T21:43:51.357Z,92.66
2022-11-23T21:46:18.283Z,93.19
2022-11-23T21:48:44.765Z,93.14
2022-11-23T21:51:15.493Z,93.09
2022-11-23T21:53:42.044Z,92.80
2022-11-23T21:56:11.490Z,93.30
2022-11-23T21:58:37.910Z,92.45
2022-11-23T22:01:20.777Z,92.69
2022-11-23T22:03:52.824Z,93.39
2022-11-23T22:06:20.872Z,93.39
2022-11-23T22:08:49.648Z,93.89
2022-11-23T22:11:25.820Z,93.84
2022-11-23T22:14:02.600Z,94.57
2022-11-23T22:16:33.818Z,94.28
2022-11-23T22:19:00.940Z,94.02
2022-11-23T22:21:30.380Z,93.88
2022-11-23T22:23:58.382Z,93.89
2022-11-23T22:26:26.187Z,94.36
2022-11-23T22:28:52.693Z,93.61
2022-11-23T22:31:21.694Z,93.52
2022-11-23T22:33:49.216Z,92.62
2022-11-23T22:36:17.736Z,92.68
2022-11-23T22:38:44.668Z,92.26
2022-11-23T22:41:13.087Z,92.49
2022-11-23T22:43:39.583Z,92.06
2022-11-23T22:46:12.512Z,91.43
2022-11-23T22:48:40.020Z,91.11
2022-11-23T22:51:07.374Z,90.77
2022-11-23T22:53:33.974Z,90.37
2022-11-23T22:56:01.986Z,90.12
2022-11-23T22:58:29.640Z,89.94
2022-11-23T23:00:57.485Z,90.26
2022-11-23T23:03:24.348Z,89.56
2022-11-23T23:05:57.824Z,89.93
2022-11-23T23:08:25.269Z,89.69
2022-11-23T23:10:51.755Z,89.61
2022-11-23T23:13:18.893Z,89.76
2022-11-23T23:15:45.516Z,89.72
2022-11-23T23:18:13.638Z,89.66
2022-11-23T23:20:40.233Z,90.69
2022-11-23T23:23:06.756Z,90.93
2022-11-23T23:25:33.147Z,90.99
2022-11-23T23:27:59.633Z,90.97
2022-11-23T23:30:26.438Z,90.34
2022-11-23T23:32:58.157Z,90.01
2022-11-23T23:35:24.596Z,90.51
2022-11-23T23:37:51.565Z,90.36
2022-11-23T23:40:18.052Z,90.67
2022-11-23T23:42:44.471Z,90.02
2022-11-23T23:45:11.023Z,89.42
2022-11-23T23:47:37.849Z,88.89
2022-11-23T23:50:04.787Z,88.42
2022-11-23T23:52:31.313Z,87.97
2022-11-23T23:54:57.729Z,88.18
2022-11-23T23:57:24.166Z,88.40
2022-11-23T23:59:50.584Z,89.32
